sensor_id;sensor_type;location;lat;lon;timestamp;pressure;altitude;pressure_sealevel;temperature;humidity
25658;BME280;13517;59.320;18.042;2022-10-30T00:01:07;100864.13;;;6.25;80.71
25658;BME280;13517;59.320;18.042;2022-10-30T00:03:32;100860.06;;;6.17;79.96
25658;BME280;13517;59.320;18.042;2022-10-30T00:05:57;100884.53;;;6.30;79.46
25658;BME280;13517;59.320;18.042;2022-10-30T00:08:23;100886.34;;;6.29;79.72
25658;BME280;13517;59.320;18.042;2022-10-30T00:10:52;100889.09;;;6.28;78.92
25658;BME280;13517;59.320;18.042;2022-10-30T00:13:18;100864.03;;;6.08;79.13
25658;BME280;13517;59.320;18.042;2022-10-30T00:15:52;100886.75;;;6.20;77.10
25658;BME280;13517;59.320;18.042;2022-10-30T00:18:18;100890.44;;;6.17;78.37
25658;BME280;13517;59.320;18.042;2022-10-30T00:20:45;100883.53;;;6.11;78.54
25658;BME280;13517;59.320;18.042;2022-10-30T00:23:10;100885.38;;;6.09;78.34
25658;BME280;13517;59.320;18.042;2022-10-30T00:25:36;100864.56;;;5.94;78.29
25658;BME280;13517;59.320;18.042;2022-10-30T00:28:03;100861.09;;;5.92;78.85
25658;BME280;13517;59.320;18.042;2022-10-30T00:30:28;100844.69;;;5.79;78.96
25658;BME280;13517;59.320;18.042;2022-10-30T00:32:54;100876.19;;;5.94;79.38
25658;BME280;13517;59.320;18.042;2022-10-30T00:35:19;100880.81;;;5.91;78.98
25658;BME280;13517;59.320;18.042;2022-10-30T00:37:44;100863.34;;;5.80;78.79
25658;BME280;13517;59.320;18.042;2022-10-30T00:40:13;100874.72;;;5.87;78.03
25658;BME280;13517;59.320;18.042;2022-10-30T00:42:40;100852.63;;;5.80;77.99
25658;BME280;13517;59.320;18.042;2022-10-30T00:45:06;100864.38;;;5.78;77.67
25658;BME280;13517;59.320;18.042;2022-10-30T00:47:35;100883.06;;;5.79;77.08
25658;BME280;13517;59.320;18.042;2022-10-30T00:52:35;100857.41;;;5.51;78.53
25658;BME280;13517;59.320;18.042;2022-10-30T00:55:10;100894.56;;;5.61;79.20
25658;BME280;13517;59.320;18.042;2022-10-30T00:57:37;100888.38;;;5.58;79.25
25658;BME280;13517;59.320;18.042;2022-10-30T01:00:04;100888.19;;;5.63;78.82
25658;BME280;13517;59.320;18.042;2022-10-30T01:02:30;100864.25;;;5.58;78.29
25658;BME280;13517;59.320;18.042;2022-10-30T01:04:56;100889.97;;;5.64;77.93
25658;BME280;13517;59.320;18.042;2022-10-30T01:07:22;100884.91;;;5.56;78.63
25658;BME280;13517;59.320;18.042;2022-10-30T01:09:47;100902.78;;;5.56;78.76
25658;BME280;13517;59.320;18.042;2022-10-30T01:12:14;100902.03;;;5.52;78.54
25658;BME280;13517;59.320;18.042;2022-10-30T01:14:44;100879.63;;;5.32;78.58
25658;BME280;13517;59.320;18.042;2022-10-30T01:17:17;100905.03;;;5.44;78.43
25658;BME280;13517;59.320;18.042;2022-10-30T01:25:35;100897.19;;;5.40;77.01
25658;BME280;13517;59.320;18.042;2022-10-30T01:33:45;100896.34;;;5.38;77.92
25658;BME280;13517;59.320;18.042;2022-10-30T01:39:08;100849.34;;;5.08;78.10
25658;BME280;13517;59.320;18.042;2022-10-30T01:41:34;100892.81;;;5.37;78.19
25658;BME280;13517;59.320;18.042;2022-10-30T01:44:04;100867.41;;;5.25;77.94
25658;BME280;13517;59.320;18.042;2022-10-30T01:54:53;100903.66;;;5.34;79.81
25658;BME280;13517;59.320;18.042;2022-10-30T02:00:05;100917.22;;;5.29;80.68
25658;BME280;13517;59.320;18.042;2022-10-30T02:02:31;100911.94;;;5.28;80.79
25658;BME280;13517;59.320;18.042;2022-10-30T02:04:58;100901.63;;;5.17;81.14
25658;BME280;13517;59.320;18.042;2022-10-30T02:07:23;100905.00;;;5.22;80.90
25658;BME280;13517;59.320;18.042;2022-10-30T02:09:53;100927.94;;;5.29;80.95
25658;BME280;13517;59.320;18.042;2022-10-30T02:12:19;100915.03;;;5.17;81.44
25658;BME280;13517;59.320;18.042;2022-10-30T02:14:48;100917.22;;;5.07;81.72
25658;BME280;13517;59.320;18.042;2022-10-30T02:17:15;100934.72;;;5.16;81.21
25658;BME280;13517;59.320;18.042;2022-10-30T02:19:41;100925.66;;;4.96;81.93
25658;BME280;13517;59.320;18.042;2022-10-30T02:22:07;100908.19;;;4.86;82.02
25658;BME280;13517;59.320;18.042;2022-10-30T02:24:32;100933.00;;;4.91;82.62
25658;BME280;13517;59.320;18.042;2022-10-30T02:26:58;100914.94;;;4.72;82.71
25658;BME280;13517;59.320;18.042;2022-10-30T02:29:23;100926.34;;;4.77;82.70
25658;BME280;13517;59.320;18.042;2022-10-30T02:31:49;100910.97;;;4.59;82.28
25658;BME280;13517;59.320;18.042;2022-10-30T02:34:15;100944.38;;;4.72;82.31
25658;BME280;13517;59.320;18.042;2022-10-30T02:36:40;100925.28;;;4.58;82.03
25658;BME280;13517;59.320;18.042;2022-10-30T02:39:06;100943.84;;;4.62;82.39
25658;BME280;13517;59.320;18.042;2022-10-30T02:41:32;100904.31;;;4.45;80.90
25658;BME280;13517;59.320;18.042;2022-10-30T02:43:57;100928.94;;;4.55;80.79
25658;BME280;13517;59.320;18.042;2022-10-30T02:46:23;100922.91;;;4.50;80.47
25658;BME280;13517;59.320;18.042;2022-10-30T02:48:48;100927.09;;;4.57;80.38
25658;BME280;13517;59.320;18.042;2022-10-30T02:51:13;100937.94;;;4.53;80.48
25658;BME280;13517;59.320;18.042;2022-10-30T02:53:39;100923.03;;;4.45;80.45
25658;BME280;13517;59.320;18.042;2022-10-30T02:56:06;100923.25;;;4.39;80.15
25658;BME280;13517;59.320;18.042;2022-10-30T02:58:32;100924.84;;;4.45;79.85
25658;BME280;13517;59.320;18.042;2022-10-30T03:01:07;100919.78;;;4.37;80.09
25658;BME280;13517;59.320;18.042;2022-10-30T03:03:32;100905.69;;;4.32;80.52
25658;BME280;13517;59.320;18.042;2022-10-30T03:06:03;100913.94;;;4.26;81.00
25658;BME280;13517;59.320;18.042;2022-10-30T03:08:29;100937.91;;;4.29;81.45
25658;BME280;13517;59.320;18.042;2022-10-30T03:11:01;100948.63;;;4.27;81.21
25658;BME280;13517;59.320;18.042;2022-10-30T03:13:28;100920.56;;;4.14;81.29
25658;BME280;13517;59.320;18.042;2022-10-30T03:16:01;100909.13;;;4.10;80.06
25658;BME280;13517;59.320;18.042;2022-10-30T03:18:27;100948.38;;;4.35;80.81
25658;BME280;13517;59.320;18.042;2022-10-30T03:21:01;100935.09;;;4.32;80.65
25658;BME280;13517;59.320;18.042;2022-10-30T03:23:27;100919.28;;;4.26;81.29
25658;BME280;13517;59.320;18.042;2022-10-30T03:25:54;100942.22;;;4.33;81.21
25658;BME280;13517;59.320;18.042;2022-10-30T03:28:21;100939.09;;;4.20;81.84
25658;BME280;13517;59.320;18.042;2022-10-30T03:30:47;100944.72;;;4.12;81.91
25658;BME280;13517;59.320;18.042;2022-10-30T03:33:13;100941.09;;;4.13;81.89
25658;BME280;13517;59.320;18.042;2022-10-30T03:35:38;100942.03;;;4.12;81.32
25658;BME280;13517;59.320;18.042;2022-10-30T03:38:03;100932.19;;;4.13;81.43
25658;BME280;13517;59.320;18.042;2022-10-30T03:40:29;100940.00;;;4.19;81.06
25658;BME280;13517;59.320;18.042;2022-10-30T03:42:54;100915.44;;;4.07;81.11
25658;BME280;13517;59.320;18.042;2022-10-30T03:45:20;100935.44;;;4.22;80.64
25658;BME280;13517;59.320;18.042;2022-10-30T03:47:45;100926.94;;;4.11;80.93
25658;BME280;13517;59.320;18.042;2022-10-30T03:50:10;100931.91;;;4.22;80.46
25658;BME280;13517;59.320;18.042;2022-10-30T03:52:36;100925.88;;;4.15;80.29
25658;BME280;13517;59.320;18.042;2022-10-30T03:55:01;100954.06;;;4.26;80.34
25658;BME280;13517;59.320;18.042;2022-10-30T03:57:26;100930.75;;;4.29;80.12
25658;BME280;13517;59.320;18.042;2022-10-30T03:59:52;100931.91;;;4.22;80.76
25658;BME280;13517;59.320;18.042;2022-10-30T04:02:17;100903.88;;;4.07;80.39
25658;BME280;13517;59.320;18.042;2022-10-30T04:04:42;100931.34;;;4.12;80.79
25658;BME280;13517;59.320;18.042;2022-10-30T04:07:08;100916.66;;;3.99;80.81
25658;BME280;13517;59.320;18.042;2022-10-30T04:09:33;100954.53;;;4.12;81.29
25658;BME280;13517;59.320;18.042;2022-10-30T04:11:59;100923.16;;;3.90;81.03
25658;BME280;13517;59.320;18.042;2022-10-30T04:14:24;100937.09;;;4.00;81.19
25658;BME280;13517;59.320;18.042;2022-10-30T04:16:49;100947.53;;;4.07;81.21
25658;BME280;13517;59.320;18.042;2022-10-30T04:19:15;100950.34;;;4.03;81.16
25658;BME280;13517;59.320;18.042;2022-10-30T04:21:40;100951.19;;;4.05;80.69
25658;BME280;13517;59.320;18.042;2022-10-30T04:24:08;100953.72;;;4.09;80.50
25658;BME280;13517;59.320;18.042;2022-10-30T04:26:33;100974.81;;;4.17;80.46
25658;BME280;13517;59.320;18.042;2022-10-30T04:28:58;100970.47;;;4.15;80.47
25658;BME280;13517;59.320;18.042;2022-10-30T04:31:24;100942.34;;;4.03;80.14
25658;BME280;13517;59.320;18.042;2022-10-30T04:33:50;100966.78;;;4.17;80.40
25658;BME280;13517;59.320;18.042;2022-10-30T04:36:15;100961.56;;;4.14;80.62
25658;BME280;13517;59.320;18.042;2022-10-30T04:38:42;100959.91;;;4.10;80.77
25658;BME280;13517;59.320;18.042;2022-10-30T04:41:07;100974.97;;;4.13;81.42
25658;BME280;13517;59.320;18.042;2022-10-30T04:43:33;100982.91;;;4.16;82.41
25658;BME280;13517;59.320;18.042;2022-10-30T04:45:58;100974.81;;;4.17;83.21
25658;BME280;13517;59.320;18.042;2022-10-30T04:48:23;100963.47;;;4.11;83.98
25658;BME280;13517;59.320;18.042;2022-10-30T04:50:49;100978.53;;;4.13;85.05
25658;BME280;13517;59.320;18.042;2022-10-30T04:53:16;100975.91;;;4.12;85.97
25658;BME280;13517;59.320;18.042;2022-10-30T04:55:43;100946.97;;;3.98;86.75
25658;BME280;13517;59.320;18.042;2022-10-30T04:58:09;100964.56;;;4.05;87.26
25658;BME280;13517;59.320;18.042;2022-10-30T05:00:35;100975.06;;;4.11;87.85
25658;BME280;13517;59.320;18.042;2022-10-30T05:03:01;100957.81;;;3.93;87.66
25658;BME280;13517;59.320;18.042;2022-10-30T05:05:30;100984.28;;;4.01;88.73
25658;BME280;13517;59.320;18.042;2022-10-30T05:07:56;100987.91;;;4.00;89.23
25658;BME280;13517;59.320;18.042;2022-10-30T05:10:21;101009.16;;;4.03;89.63
25658;BME280;13517;59.320;18.042;2022-10-30T05:12:47;100966.88;;;3.89;89.84
25658;BME280;13517;59.320;18.042;2022-10-30T05:15:13;101004.75;;;4.02;90.28
25658;BME280;13517;59.320;18.042;2022-10-30T05:17:39;100987.47;;;3.85;90.73
25658;BME280;13517;59.320;18.042;2022-10-30T05:20:05;101005.91;;;3.93;91.37
25658;BME280;13517;59.320;18.042;2022-10-30T05:22:31;101017.09;;;4.06;91.49
25658;BME280;13517;59.320;18.042;2022-10-30T05:24:56;101008.34;;;4.01;91.83
25658;BME280;13517;59.320;18.042;2022-10-30T05:27:22;100989.84;;;3.94;91.89
25658;BME280;13517;59.320;18.042;2022-10-30T05:29:47;100990.81;;;3.92;91.92
25658;BME280;13517;59.320;18.042;2022-10-30T05:32:13;101002.19;;;3.99;92.10
25658;BME280;13517;59.320;18.042;2022-10-30T05:34:38;100991.69;;;3.92;92.38
25658;BME280;13517;59.320;18.042;2022-10-30T05:37:03;101020.56;;;4.09;92.10
25658;BME280;13517;59.320;18.042;2022-10-30T05:39:29;101030.34;;;4.09;92.01
25658;BME280;13517;59.320;18.042;2022-10-30T05:41:54;100998.78;;;3.93;92.36
25658;BME280;13517;59.320;18.042;2022-10-30T05:44:20;100995.38;;;3.88;92.36
25658;BME280;13517;59.320;18.042;2022-10-30T05:46:45;101022.50;;;4.04;91.99
25658;BME280;13517;59.320;18.042;2022-10-30T05:49:10;101010.50;;;3.89;92.33
25658;BME280;13517;59.320;18.042;2022-10-30T05:51:36;101028.72;;;4.05;92.51
25658;BME280;13517;59.320;18.042;2022-10-30T05:54:01;100997.97;;;3.91;92.45
25658;BME280;13517;59.320;18.042;2022-10-30T05:56:27;101042.91;;;4.07;92.45
25658;BME280;13517;59.320;18.042;2022-10-30T05:58:52;101017.47;;;3.95;92.62
25658;BME280;13517;59.320;18.042;2022-10-30T06:01:18;101042.19;;;4.02;92.40
25658;BME280;13517;59.320;18.042;2022-10-30T06:03:43;101052.69;;;4.08;92.57
25658;BME280;13517;59.320;18.042;2022-10-30T06:06:09;101040.28;;;4.05;92.67
25658;BME280;13517;59.320;18.042;2022-10-30T06:08:34;101022.69;;;3.98;92.63
25658;BME280;13517;59.320;18.042;2022-10-30T06:10:59;101014.63;;;4.00;92.46
25658;BME280;13517;59.320;18.042;2022-10-30T06:13:25;101038.19;;;4.15;92.01
25658;BME280;13517;59.320;18.042;2022-10-30T06:15:53;101050.00;;;4.08;92.00
25658;BME280;13517;59.320;18.042;2022-10-30T06:18:19;101031.31;;;4.06;91.30
25658;BME280;13517;59.320;18.042;2022-10-30T06:20:45;101021.69;;;4.02;90.99
25658;BME280;13517;59.320;18.042;2022-10-30T06:23:10;101031.28;;;4.08;91.09
25658;BME280;13517;59.320;18.042;2022-10-30T06:25:36;101018.13;;;4.02;90.96
25658;BME280;13517;59.320;18.042;2022-10-30T06:28:02;101049.59;;;4.20;91.28
25658;BME280;13517;59.320;18.042;2022-10-30T06:30:28;101058.50;;;4.21;91.65
25658;BME280;13517;59.320;18.042;2022-10-30T06:32:58;101063.78;;;4.22;91.32
25658;BME280;13517;59.320;18.042;2022-10-30T06:35:23;101059.41;;;4.20;91.23
25658;BME280;13517;59.320;18.042;2022-10-30T06:37:49;101052.53;;;4.13;91.43
25658;BME280;13517;59.320;18.042;2022-10-30T06:40:16;101085.88;;;4.29;91.35
25658;BME280;13517;59.320;18.042;2022-10-30T06:42:45;101092.19;;;4.27;92.14
25658;BME280;13517;59.320;18.042;2022-10-30T06:45:12;101058.06;;;4.06;91.86
25658;BME280;13517;59.320;18.042;2022-10-30T06:47:38;101055.47;;;4.05;92.67
25658;BME280;13517;59.320;18.042;2022-10-30T06:50:05;101088.69;;;4.25;92.38
25658;BME280;13517;59.320;18.042;2022-10-30T06:52:31;101101.03;;;4.29;92.26
25658;BME280;13517;59.320;18.042;2022-10-30T06:54:56;101079.19;;;4.16;92.82
25658;BME280;13517;59.320;18.042;2022-10-30T06:57:22;101104.53;;;4.31;93.29
25658;BME280;13517;59.320;18.042;2022-10-30T06:59:47;101095.84;;;4.24;92.81
25658;BME280;13517;59.320;18.042;2022-10-30T07:02:12;101106.22;;;4.33;93.36
25658;BME280;13517;59.320;18.042;2022-10-30T07:04:38;101094.88;;;4.27;93.16
25658;BME280;13517;59.320;18.042;2022-10-30T07:07:03;101107.94;;;4.36;93.01
25658;BME280;13517;59.320;18.042;2022-10-30T07:09:30;101107.16;;;4.32;93.44
25658;BME280;13517;59.320;18.042;2022-10-30T07:11:55;101092.25;;;4.25;93.26
25658;BME280;13517;59.320;18.042;2022-10-30T07:14:20;101102.47;;;4.39;93.51
25658;BME280;13517;59.320;18.042;2022-10-30T07:16:46;101122.75;;;4.46;93.23
25658;BME280;13517;59.320;18.042;2022-10-30T07:19:11;101088.47;;;4.31;93.54
25658;BME280;13517;59.320;18.042;2022-10-30T07:21:37;101099.81;;;4.39;93.48
25658;BME280;13517;59.320;18.042;2022-10-30T07:24:02;101097.19;;;4.38;93.74
25658;BME280;13517;59.320;18.042;2022-10-30T07:26:28;101104.13;;;4.43;93.33
25658;BME280;13517;59.320;18.042;2022-10-30T07:28:53;101120.97;;;4.47;93.33
25658;BME280;13517;59.320;18.042;2022-10-30T07:31:19;101137.47;;;4.60;93.54
25658;BME280;13517;59.320;18.042;2022-10-30T07:33:44;101112.03;;;4.46;93.66
25658;BME280;13517;59.320;18.042;2022-10-30T07:36:09;101119.88;;;4.53;93.51
25658;BME280;13517;59.320;18.042;2022-10-30T07:38:36;101140.06;;;4.63;93.60
25658;BME280;13517;59.320;18.042;2022-10-30T07:41:02;101122.66;;;4.49;93.73
25658;BME280;13517;59.320;18.042;2022-10-30T07:43:27;101126.72;;;4.61;93.96
25658;BME280;13517;59.320;18.042;2022-10-30T07:45:53;101131.06;;;4.66;93.46
25658;BME280;13517;59.320;18.042;2022-10-30T07:48:18;101140.69;;;4.71;93.50
25658;BME280;13517;59.320;18.042;2022-10-30T07:50:44;101140.47;;;4.77;93.89
25658;BME280;13517;59.320;18.042;2022-10-30T07:53:09;101097.41;;;4.58;93.79
25658;BME280;13517;59.320;18.042;2022-10-30T07:55:34;101135.00;;;4.81;93.78
25658;BME280;13517;59.320;18.042;2022-10-30T07:58:00;101149.94;;;4.88;93.91
25658;BME280;13517;59.320;18.042;2022-10-30T08:00:25;101150.78;;;4.90;93.35
25658;BME280;13517;59.320;18.042;2022-10-30T08:02:54;101153.44;;;4.90;93.01
25658;BME280;13517;59.320;18.042;2022-10-30T08:05:20;101138.41;;;4.86;92.81
25658;BME280;13517;59.320;18.042;2022-10-30T08:07:46;101157.50;;;5.02;92.06
25658;BME280;13517;59.320;18.042;2022-10-30T08:10:12;101154.06;;;4.98;92.48
25658;BME280;13517;59.320;18.042;2022-10-30T08:12:38;101167.28;;;5.03;92.38
25658;BME280;13517;59.320;18.042;2022-10-30T08:15:05;101144.50;;;4.91;92.18
25658;BME280;13517;59.320;18.042;2022-10-30T08:17:31;101175.00;;;5.12;92.25
25658;BME280;13517;59.320;18.042;2022-10-30T08:19:57;101152.19;;;5.00;92.25
25658;BME280;13517;59.320;18.042;2022-10-30T08:22:22;101173.03;;;5.17;92.16
25658;BME280;13517;59.320;18.042;2022-10-30T08:24:48;101152.72;;;5.12;91.33
25658;BME280;13517;59.320;18.042;2022-10-30T08:27:13;101162.28;;;5.19;90.92
25658;BME280;13517;59.320;18.042;2022-10-30T08:29:38;101158.75;;;5.17;90.92
25658;BME280;13517;59.320;18.042;2022-10-30T08:32:05;101195.63;;;5.36;90.21
25658;BME280;13517;59.320;18.042;2022-10-30T08:34:30;101190.03;;;5.42;89.58
25658;BME280;13517;59.320;18.042;2022-10-30T08:36:56;101182.72;;;5.47;89.67
25658;BME280;13517;59.320;18.042;2022-10-30T08:39:22;101169.41;;;5.44;89.04
25658;BME280;13517;59.320;18.042;2022-10-30T08:41:47;101186.94;;;5.54;89.09
25658;BME280;13517;59.320;18.042;2022-10-30T08:44:13;101178.91;;;5.54;88.73
25658;BME280;13517;59.320;18.042;2022-10-30T08:46:38;101159.41;;;5.49;88.83
25658;BME280;13517;59.320;18.042;2022-10-30T08:49:04;101169.56;;;5.65;88.49
25658;BME280;13517;59.320;18.042;2022-10-30T08:51:33;101180.06;;;5.71;88.19
25658;BME280;13517;59.320;18.042;2022-10-30T08:53:59;101193.28;;;5.76;88.14
25658;BME280;13517;59.320;18.042;2022-10-30T08:56:25;101199.31;;;5.82;87.46
25658;BME280;13517;59.320;18.042;2022-10-30T08:58:51;101191.19;;;5.84;87.51
25658;BME280;13517;59.320;18.042;2022-10-30T09:01:16;101186.00;;;5.79;86.79
25658;BME280;13517;59.320;18.042;2022-10-30T09:03:43;101190.22;;;5.86;87.03
25658;BME280;13517;59.320;18.042;2022-10-30T09:06:09;101194.13;;;6.03;86.11
25658;BME280;13517;59.320;18.042;2022-10-30T09:08:34;101165.78;;;5.94;85.56
25658;BME280;13517;59.320;18.042;2022-10-30T09:11:00;101149.53;;;5.99;85.52
25658;BME280;13517;59.320;18.042;2022-10-30T09:13:25;101181.09;;;6.16;85.51
25658;BME280;13517;59.320;18.042;2022-10-30T09:15:51;101181.09;;;6.16;84.62
25658;BME280;13517;59.320;18.042;2022-10-30T09:18:16;101182.59;;;6.23;84.30
25658;BME280;13517;59.320;18.042;2022-10-30T09:20:42;101181.38;;;6.32;82.89
25658;BME280;13517;59.320;18.042;2022-10-30T09:23:07;101183.81;;;6.38;82.35
25658;BME280;13517;59.320;18.042;2022-10-30T09:25:33;101160.72;;;6.34;81.61
25658;BME280;13517;59.320;18.042;2022-10-30T09:27:58;101159.56;;;6.40;81.93
25658;BME280;13517;59.320;18.042;2022-10-30T09:30:24;101199.28;;;6.54;81.03
25658;BME280;13517;59.320;18.042;2022-10-30T09:32:54;101187.88;;;6.49;78.48
25658;BME280;13517;59.320;18.042;2022-10-30T09:35:19;101190.41;;;6.52;80.00
25658;BME280;13517;59.320;18.042;2022-10-30T09:37:45;101217.59;;;6.66;79.09
25658;BME280;13517;59.320;18.042;2022-10-30T09:40:18;101182.34;;;6.52;78.39
25658;BME280;13517;59.320;18.042;2022-10-30T09:42:47;101216.56;;;6.69;78.71
25658;BME280;13517;59.320;18.042;2022-10-30T09:56:39;101218.03;;;6.78;78.16
25658;BME280;13517;59.320;18.042;2022-10-30T10:04:45;101215.97;;;6.85;78.40
25658;BME280;13517;59.320;18.042;2022-10-30T10:07:25;101207.22;;;6.79;77.67
25658;BME280;13517;59.320;18.042;2022-10-30T10:09:58;101215.13;;;6.82;77.88
25658;BME280;13517;59.320;18.042;2022-10-30T10:12:31;101205.59;;;6.75;77.39
25658;BME280;13517;59.320;18.042;2022-10-30T10:14:59;101235.53;;;6.88;77.67
25658;BME280;13517;59.320;18.042;2022-10-30T10:17:34;101238.22;;;6.88;77.32
25658;BME280;13517;59.320;18.042;2022-10-30T10:20:02;101234.56;;;6.89;77.54
25658;BME280;13517;59.320;18.042;2022-10-30T10:22:44;101228.31;;;6.89;77.11
25658;BME280;13517;59.320;18.042;2022-10-30T10:25:14;101231.94;;;6.88;78.07
25658;BME280;13517;59.320;18.042;2022-10-30T10:30:15;101209.97;;;6.78;77.88
25658;BME280;13517;59.320;18.042;2022-10-30T10:44:19;101266.38;;;7.00;76.98
25658;BME280;13517;59.320;18.042;2022-10-30T10:52:15;101249.75;;;6.90;76.32
25658;BME280;13517;59.320;18.042;2022-10-30T10:54:46;101241.69;;;6.90;76.74
25658;BME280;13517;59.320;18.042;2022-10-30T10:57:27;101231.34;;;6.81;76.50
25658;BME280;13517;59.320;18.042;2022-10-30T11:00:01;101273.44;;;7.03;76.72
25658;BME280;13517;59.320;18.042;2022-10-30T11:07:47;101255.44;;;7.05;77.15
25658;BME280;13517;59.320;18.042;2022-10-30T11:10:15;101273.94;;;7.13;77.28
25658;BME280;13517;59.320;18.042;2022-10-30T11:12:41;101259.06;;;7.04;77.16
25658;BME280;13517;59.320;18.042;2022-10-30T11:17:52;101255.56;;;7.02;77.75
25658;BME280;13517;59.320;18.042;2022-10-30T11:26:27;101264.19;;;7.10;76.71
25658;BME280;13517;59.320;18.042;2022-10-30T11:29:12;101266.78;;;7.12;76.93
25658;BME280;13517;59.320;18.042;2022-10-30T11:31:43;101262.28;;;7.12;77.34
25658;BME280;13517;59.320;18.042;2022-10-30T11:34:12;101256.91;;;7.12;77.83
25658;BME280;13517;59.320;18.042;2022-10-30T11:36:38;101240.34;;;7.01;78.05
25658;BME280;13517;59.320;18.042;2022-10-30T11:39:28;101259.59;;;7.12;76.91
25658;BME280;13517;59.320;18.042;2022-10-30T11:42:20;101248.13;;;7.08;77.17
25658;BME280;13517;59.320;18.042;2022-10-30T11:44:47;101233.78;;;7.08;77.23
25658;BME280;13517;59.320;18.042;2022-10-30T11:47:15;101249.34;;;7.22;77.12
25658;BME280;13517;59.320;18.042;2022-10-30T11:53:00;101251.16;;;7.21;77.28
25658;BME280;13517;59.320;18.042;2022-10-30T11:55:53;101256.66;;;7.18;76.79
25658;BME280;13517;59.320;18.042;2022-10-30T11:58:41;101250.34;;;7.19;76.75
25658;BME280;13517;59.320;18.042;2022-10-30T12:03:40;101236.03;;;7.19;75.85
25658;BME280;13517;59.320;18.042;2022-10-30T12:09:08;101251.28;;;7.18;76.09
25658;BME280;13517;59.320;18.042;2022-10-30T12:11:35;101225.72;;;7.08;76.61
25658;BME280;13517;59.320;18.042;2022-10-30T12:14:02;101239.06;;;7.11;76.37
25658;BME280;13517;59.320;18.042;2022-10-30T12:16:28;101251.16;;;7.21;76.27
25658;BME280;13517;59.320;18.042;2022-10-30T12:19:06;101252.03;;;7.22;75.90
25658;BME280;13517;59.320;18.042;2022-10-30T12:21:43;101261.69;;;7.26;75.96
25658;BME280;13517;59.320;18.042;2022-10-30T12:24:33;101260.94;;;7.22;75.85
25658;BME280;13517;59.320;18.042;2022-10-30T12:27:02;101256.47;;;7.23;76.11
25658;BME280;13517;59.320;18.042;2022-10-30T12:29:41;101245.22;;;7.13;76.34
25658;BME280;13517;59.320;18.042;2022-10-30T12:32:12;101242.03;;;7.26;76.06
25658;BME280;13517;59.320;18.042;2022-10-30T12:34:45;101225.16;;;7.22;75.56
25658;BME280;13517;59.320;18.042;2022-10-30T12:37:23;101241.78;;;7.32;74.49
25658;BME280;13517;59.320;18.042;2022-10-30T12:40:03;101218.09;;;7.19;73.77
25658;BME280;13517;59.320;18.042;2022-10-30T12:42:34;101229.13;;;7.34;74.33
25658;BME280;13517;59.320;18.042;2022-10-30T12:45:06;101232.63;;;7.36;74.23
25658;BME280;13517;59.320;18.042;2022-10-30T12:48:04;101237.13;;;7.35;72.72
25658;BME280;13517;59.320;18.042;2022-10-30T12:53:13;101248.63;;;7.39;74.10
25658;BME280;13517;59.320;18.042;2022-10-30T12:55:48;101245.19;;;7.35;74.23
25658;BME280;13517;59.320;18.042;2022-10-30T12:58:43;101242.50;;;7.35;73.82
25658;BME280;13517;59.320;18.042;2022-10-30T13:01:26;101243.63;;;7.30;74.20
25658;BME280;13517;59.320;18.042;2022-10-30T13:04:11;101248.19;;;7.28;74.63
25658;BME280;13517;59.320;18.042;2022-10-30T13:06:44;101251.28;;;7.18;74.36
25658;BME280;13517;59.320;18.042;2022-10-30T13:09:24;101252.09;;;7.20;75.58
25658;BME280;13517;59.320;18.042;2022-10-30T13:12:02;101246.91;;;7.16;75.48
25658;BME280;13517;59.320;18.042;2022-10-30T13:14:39;101261.63;;;7.28;75.35
25658;BME280;13517;59.320;18.042;2022-10-30T13:17:13;101247.50;;;7.22;75.09
25658;BME280;13517;59.320;18.042;2022-10-30T13:19:39;101240.28;;;7.25;74.59
25658;BME280;13517;59.320;18.042;2022-10-30T13:27:39;101224.53;;;7.15;74.39
25658;BME280;13517;59.320;18.042;2022-10-30T13:30:19;101259.50;;;7.36;74.46
25658;BME280;13517;59.320;18.042;2022-10-30T13:56:40;101263.63;;;7.22;75.75
25658;BME280;13517;59.320;18.042;2022-10-30T13:59:13;101281.41;;;7.27;75.91
25658;BME280;13517;59.320;18.042;2022-10-30T14:04:34;101265.91;;;7.11;76.12
25658;BME280;13517;59.320;18.042;2022-10-30T14:07:13;101271.16;;;7.14;76.33
25658;BME280;13517;59.320;18.042;2022-10-30T14:10:20;101278.34;;;7.14;76.19
25658;BME280;13517;59.320;18.042;2022-10-30T14:13:02;101263.50;;;7.05;75.80
25658;BME280;13517;59.320;18.042;2022-10-30T14:20:44;101286.91;;;7.01;76.63
25658;BME280;13517;59.320;18.042;2022-10-30T14:28:29;101276.47;;;6.93;76.19
25658;BME280;13517;59.320;18.042;2022-10-30T14:31:08;101283.72;;;6.91;76.22
25658;BME280;13517;59.320;18.042;2022-10-30T14:36:19;101285.84;;;6.83;76.62
25658;BME280;13517;59.320;18.042;2022-10-30T14:38:59;101286.91;;;6.79;76.83
25658;BME280;13517;59.320;18.042;2022-10-30T14:41:36;101270.91;;;6.76;76.81
25658;BME280;13517;59.320;18.042;2022-10-30T14:44:16;101274.47;;;6.76;77.35
25658;BME280;13517;59.320;18.042;2022-10-30T14:49:43;101283.84;;;6.66;77.37
25658;BME280;13517;59.320;18.042;2022-10-30T14:52:34;101276.91;;;6.60;77.80
25658;BME280;13517;59.320;18.042;2022-10-30T14:57:53;101293.13;;;6.57;78.34
25658;BME280;13517;59.320;18.042;2022-10-30T15:05:45;101284.19;;;6.33;79.85
25658;BME280;13517;59.320;18.042;2022-10-30T15:08:29;101288.81;;;6.29;80.26
25658;BME280;13517;59.320;18.042;2022-10-30T15:11:19;101290.91;;;6.21;80.57
25658;BME280;13517;59.320;18.042;2022-10-30T15:13:58;101273.34;;;6.12;80.71
25658;BME280;13517;59.320;18.042;2022-10-30T15:16:26;101268.06;;;6.10;80.72
25658;BME280;13517;59.320;18.042;2022-10-30T15:19:02;101291.03;;;6.18;81.32
25658;BME280;13517;59.320;18.042;2022-10-30T15:21:30;101293.78;;;6.16;81.80
25658;BME280;13517;59.320;18.042;2022-10-30T15:23:59;101281.59;;;6.06;82.54